createdAt,value
2022-10-28T00:01:24.240Z,13.90
2022-10-28T00:03:55.633Z,13.13
2022-10-28T00:06:27.044Z,14.50
2022-10-28T00:08:55.891Z,13.50
2022-10-28T00:11:29.506Z,13.90
2022-10-28T00:13:59.741Z,15.18
2022-10-28T00:16:31.344Z,13.00
2022-10-28T00:19:01.507Z,12.93
2022-10-28T00:21:32.136Z,13.23
2022-10-28T00:24:00.331Z,13.55
2022-10-28T00:26:30.729Z,12.95
2022-10-28T00:29:01.170Z,12.77
2022-10-28T00:31:30.935Z,13.88
2022-10-28T00:34:00.332Z,13.98
2022-10-28T00:36:32.091Z,14.43
2022-10-28T00:39:01.665Z,13.15
2022-10-28T00:41:38.658Z,15.35
2022-10-28T00:44:37.652Z,12.80
2022-10-28T00:47:27.104Z,13.55
2022-10-28T00:50:07.796Z,13.38
2022-10-28T00:52:36.129Z,13.70
2022-10-28T00:55:05.320Z,15.75
2022-10-28T00:57:36.807Z,16.38
2022-10-28T01:00:07.126Z,13.45
2022-10-28T01:02:46.878Z,12.73
2022-10-28T01:05:29.936Z,13.68
2022-10-28T01:08:05.205Z,12.98
2022-10-28T01:11:04.515Z,13.05
2022-10-28T01:13:56.674Z,12.18
2022-10-28T01:16:35.354Z,11.45
2022-10-28T01:19:24.532Z,12.27
2022-10-28T01:22:02.220Z,11.30
2022-10-28T01:25:18.284Z,9.98
2022-10-28T01:28:04.191Z,9.95
2022-10-28T01:30:57.498Z,8.60
2022-10-28T01:33:36.932Z,9.73
2022-10-28T01:36:05.064Z,8.55
2022-10-28T01:38:45.429Z,7.75
2022-10-28T01:41:16.364Z,8.27
2022-10-28T01:44:13.885Z,10.10
2022-10-28T01:46:59.270Z,12.07
2022-10-28T01:50:02.342Z,13.65
2022-10-28T01:52:32.335Z,13.60
2022-10-28T01:55:13.462Z,14.43
2022-10-28T01:57:46.213Z,12.55
2022-10-28T02:00:14.963Z,13.80
2022-10-28T02:02:44.827Z,14.07
2022-10-28T02:05:38.491Z,14.70
2022-10-28T02:08:18.586Z,14.55
2022-10-28T02:11:17.027Z,14.70
2022-10-28T02:13:56.315Z,14.05
2022-10-28T02:16:43.194Z,13.80
2022-10-28T02:19:14.588Z,15.00
2022-10-28T02:22:00.733Z,15.32
2022-10-28T02:24:57.506Z,14.50
2022-10-28T02:27:31.471Z,14.98
2022-10-28T02:30:18.253Z,15.40
2022-10-28T02:32:52.849Z,14.23
2022-10-28T02:35:31.831Z,14.60
2022-10-28T02:38:04.376Z,13.57
2022-10-28T02:40:35.292Z,15.53
2022-10-28T02:43:07.168Z,14.93
2022-10-28T02:45:42.474Z,14.45
2022-10-28T02:48:40.280Z,13.80
2022-10-28T02:51:13.556Z,15.10
2022-10-28T02:54:09.421Z,15.13
2022-10-28T02:57:04.623Z,13.18
2022-10-28T02:59:32.824Z,11.63
2022-10-28T03:02:01.476Z,13.93
2022-10-28T03:04:29.767Z,12.88
2022-10-28T03:06:57.953Z,14.50
2022-10-28T03:09:26.132Z,13.93
2022-10-28T03:11:57.612Z,13.10
2022-10-28T03:14:25.834Z,13.70
2022-10-28T03:16:54.034Z,11.98
2022-10-28T03:19:22.211Z,12.18
2022-10-28T03:21:50.421Z,10.90
2022-10-28T03:24:18.646Z,10.75
2022-10-28T03:26:46.960Z,11.80
2022-10-28T03:29:17.045Z,11.18
2022-10-28T03:31:45.285Z,9.82
2022-10-28T03:34:13.374Z,9.93
2022-10-28T03:36:41.531Z,9.40
2022-10-28T03:39:12.082Z,10.38
2022-10-28T03:41:40.246Z,8.25
2022-10-28T03:44:08.478Z,9.30
2022-10-28T03:46:36.623Z,9.20
2022-10-28T03:49:05.233Z,9.38
2022-10-28T03:51:34.592Z,9.85
2022-10-28T03:54:02.983Z,11.30
2022-10-28T03:56:31.140Z,11.55
2022-10-28T03:58:59.309Z,10.75
2022-10-28T04:01:27.575Z,10.30
2022-10-28T04:03:55.820Z,10.55
2022-10-28T04:06:24.084Z,11.82
2022-10-28T04:08:52.253Z,13.32
2022-10-28T04:11:20.428Z,11.65
2022-10-28T04:13:50.954Z,11.75
2022-10-28T04:16:19.168Z,13.07
2022-10-28T04:18:47.274Z,11.95
2022-10-28T04:21:15.477Z,14.68
2022-10-28T04:23:43.833Z,11.90
2022-10-28T04:26:12.095Z,13.45
2022-10-28T04:28:40.267Z,13.90
2022-10-28T04:31:10.076Z,13.27
2022-10-28T04:33:38.393Z,13.15
2022-10-28T04:36:06.871Z,13.98
2022-10-28T04:38:36.031Z,13.05
2022-10-28T04:41:04.407Z,13.93
2022-10-28T04:43:32.547Z,12.73
2022-10-28T04:46:07.986Z,11.82
2022-10-28T04:48:36.563Z,12.48
2022-10-28T04:51:05.066Z,11.32
2022-10-28T04:53:33.244Z,10.77
2022-10-28T04:56:01.370Z,11.25
2022-10-28T04:58:29.645Z,10.77
2022-10-28T05:00:57.854Z,10.55
2022-10-28T05:03:26.039Z,11.85
2022-10-28T05:05:54.142Z,10.10
2022-10-28T05:08:24.796Z,9.82
2022-10-28T05:10:52.953Z,9.70
2022-10-28T05:13:21.477Z,9.27
2022-10-28T05:15:52.170Z,8.65
2022-10-28T05:18:20.336Z,10.18
2022-10-28T05:20:52.869Z,8.43
2022-10-28T05:23:25.813Z,8.57
2022-10-28T05:25:56.820Z,8.13
2022-10-28T05:28:24.982Z,8.88
2022-10-28T05:30:53.226Z,8.15
2022-10-28T05:33:21.874Z,9.18
2022-10-28T05:35:50.172Z,9.45
2022-10-28T05:38:18.548Z,10.13
2022-10-28T05:40:46.810Z,9.27
2022-10-28T05:43:15.020Z,11.18
2022-10-28T05:45:43.271Z,9.98
2022-10-28T05:48:14.289Z,9.52
2022-10-28T05:50:42.391Z,9.30
2022-10-28T05:53:10.484Z,12.55
2022-10-28T05:55:38.718Z,9.45
2022-10-28T05:58:06.827Z,9.18
2022-10-28T06:00:34.936Z,7.95
2022-10-28T06:03:11.976Z,9.65
2022-10-28T06:05:43.383Z,9.20
2022-10-28T06:08:13.037Z,8.95
2022-10-28T06:10:41.715Z,8.73
2022-10-28T06:13:10.255Z,9.77
2022-10-28T06:15:38.619Z,9.13
2022-10-28T06:18:06.759Z,8.98
2022-10-28T06:20:34.885Z,8.63
2022-10-28T06:23:03.035Z,8.98
2022-10-28T06:25:31.145Z,8.45
2022-10-28T06:28:01.094Z,8.77
2022-10-28T06:30:29.344Z,8.27
2022-10-28T06:32:57.712Z,8.82
2022-10-28T06:35:25.900Z,8.75
2022-10-28T06:37:57.173Z,8.82
2022-10-28T06:40:26.276Z,9.52
2022-10-28T06:42:59.246Z,9.02
2022-10-28T06:45:28.738Z,9.02
2022-10-28T06:48:00.485Z,9.90
2022-10-28T06:50:30.232Z,11.70
2022-10-28T06:52:59.030Z,14.63
2022-10-28T06:55:28.138Z,18.77
2022-10-28T06:58:03.526Z,19.67
2022-10-28T07:00:33.729Z,16.38
2022-10-28T07:03:02.056Z,17.02
2022-10-28T07:05:30.349Z,17.38
2022-10-28T07:07:58.538Z,15.45
2022-10-28T07:10:26.630Z,14.13
2022-10-28T07:12:54.961Z,13.88
2022-10-28T07:15:24.177Z,13.20
2022-10-28T07:17:53.949Z,13.90
2022-10-28T07:20:23.070Z,13.98
2022-10-28T07:22:58.957Z,12.55
2022-10-28T07:25:29.226Z,12.70
2022-10-28T07:27:58.461Z,10.93
2022-10-28T07:30:30.523Z,10.63
2022-10-28T07:33:01.134Z,9.30
2022-10-28T07:35:30.128Z,10.35
2022-10-28T07:37:59.026Z,10.32
2022-10-28T07:40:27.643Z,11.07
2022-10-28T07:42:56.112Z,9.18
2022-10-28T07:45:25.729Z,8.55
2022-10-28T07:47:54.075Z,9.10
2022-10-28T07:50:22.384Z,8.82
2022-10-28T07:52:50.696Z,8.27
2022-10-28T07:55:21.509Z,8.65
2022-10-28T07:57:49.916Z,8.35
2022-10-28T08:00:18.380Z,8.48
2022-10-28T08:02:46.602Z,8.88
2022-10-28T08:05:15.345Z,8.10
2022-10-28T08:07:43.519Z,9.43
2022-10-28T08:10:11.734Z,8.30
2022-10-28T08:12:39.860Z,7.95
2022-10-28T08:15:10.540Z,8.30
2022-10-28T08:17:38.727Z,7.65
2022-10-28T08:20:07.160Z,8.02
2022-10-28T08:22:35.258Z,7.07
2022-10-28T08:25:03.540Z,7.82
2022-10-28T08:27:31.754Z,7.22
2022-10-28T08:29:59.912Z,7.32
2022-10-28T08:32:28.138Z,6.45
2022-10-28T08:34:56.412Z,6.75
2022-10-28T08:37:26.932Z,6.50
2022-10-28T08:39:55.045Z,6.53
2022-10-28T08:42:41.320Z,6.00
2022-10-28T08:45:41.049Z,6.22
2022-10-28T08:48:29.889Z,5.53
2022-10-28T08:51:14.347Z,6.35
2022-10-28T08:53:52.768Z,6.13
2022-10-28T08:56:31.901Z,6.30
2022-10-28T08:59:02.642Z,5.63
2022-10-28T09:01:52.261Z,5.97
2022-10-28T09:04:37.528Z,6.45
2022-10-28T09:07:11.821Z,6.75
2022-10-28T09:09:40.084Z,6.78
2022-10-28T09:12:27.506Z,6.05
2022-10-28T09:15:14.323Z,7.30
2022-10-28T09:18:04.297Z,6.95
2022-10-28T09:20:50.235Z,7.53
2022-10-28T09:23:37.347Z,6.97
2022-10-28T09:26:43.478Z,8.32
2022-10-28T09:29:26.499Z,8.45
2022-10-28T09:32:22.449Z,6.60
2022-10-28T09:35:08.814Z,7.15
2022-10-28T09:37:45.920Z,7.60
2022-10-28T09:40:22.261Z,8.43
2022-10-28T09:43:09.891Z,7.57
2022-10-28T09:45:43.160Z,7.25
2022-10-28T09:48:22.224Z,7.85
2022-10-28T09:50:53.071Z,8.65
2022-10-28T09:53:39.122Z,9.27
2022-10-28T09:56:28.370Z,9.00
2022-10-28T09:59:00.901Z,7.88
2022-10-28T10:01:36.078Z,8.57
2022-10-28T10:04:18.107Z,9.27
2022-10-28T10:06:49.399Z,9.77
2022-10-28T10:09:33.438Z,9.10
2022-10-28T10:12:12.951Z,8.80
2022-10-28T10:14:49.993Z,8.55
2022-10-28T10:17:39.156Z,8.25
2022-10-28T10:20:10.773Z,8.98
2022-10-28T10:22:44.168Z,8.98
2022-10-28T10:28:14.710Z,9.45
2022-10-28T10:30:54.935Z,10.82
2022-10-28T10:33:28.477Z,9.10
2022-10-28T10:36:11.459Z,9.75
2022-10-28T10:38:48.204Z,10.57
2022-10-28T10:41:38.272Z,9.15
2022-10-28T10:44:21.436Z,9.18
2022-10-28T10:46:55.603Z,10.68
2022-10-28T10:49:23.788Z,10.35
2022-10-28T10:51:57.481Z,11.50
2022-10-28T10:54:31.352Z,9.77
2022-10-28T10:57:32.339Z,10.57
2022-10-28T11:00:01.124Z,11.57
2022-10-28T11:02:40.149Z,12.45
2022-10-28T11:05:10.621Z,10.77
2022-10-28T11:07:45.692Z,13.55
2022-10-28T11:10:40.909Z,12.45
2022-10-28T11:13:26.497Z,12.57
2022-10-28T11:16:02.935Z,11.43
2022-10-28T11:18:42.231Z,10.70
2022-10-28T11:21:16.316Z,10.30
2022-10-28T11:23:51.696Z,11.32
2022-10-28T11:26:23.127Z,11.35
2022-10-28T11:29:10.375Z,11.63
2022-10-28T11:31:47.764Z,11.63
2022-10-28T11:34:37.439Z,7.97
2022-10-28T11:37:16.252Z,9.32
2022-10-28T11:40:05.264Z,8.80
2022-10-28T11:42:51.606Z,9.20
2022-10-28T11:45:39.014Z,9.57
2022-10-28T11:48:22.002Z,8.23
2022-10-28T11:51:22.882Z,8.57
2022-10-28T11:54:12.141Z,8.52
2022-10-28T11:56:50.120Z,8.93
2022-10-28T11:59:40.474Z,8.85
2022-10-28T12:02:36.483Z,7.90
2022-10-28T12:05:12.920Z,8.18
2022-10-28T12:08:15.155Z,8.57
2022-10-28T12:11:01.343Z,7.75
2022-10-28T12:13:48.318Z,7.75
2022-10-28T12:16:26.155Z,8.02
2022-10-28T12:19:15.505Z,9.38
2022-10-28T12:22:04.778Z,8.85
2022-10-28T12:24:40.928Z,8.32
2022-10-28T12:27:27.823Z,8.73
2022-10-28T12:30:01.806Z,8.48
2022-10-28T12:32:37.346Z,9.00
2022-10-28T12:35:30.247Z,8.90
2022-10-28T12:38:30.744Z,8.17
2022-10-28T12:41:11.898Z,8.75
2022-10-28T12:44:06.768Z,8.38
2022-10-28T12:47:02.930Z,8.75
2022-10-28T12:50:01.665Z,8.35
2022-10-28T12:52:53.948Z,7.40
2022-10-28T12:55:44.316Z,7.60
2022-10-28T12:58:50.767Z,7.55
2022-10-28T13:01:25.112Z,7.22
2022-10-28T13:03:55.368Z,6.47
2022-10-28T13:06:32.676Z,7.82
2022-10-28T13:09:20.688Z,7.32
2022-10-28T13:12:12.452Z,8.40
2022-10-28T13:15:17.208Z,5.97
2022-10-28T13:18:19.111Z,5.97
2022-10-28T13:21:11.875Z,4.57
2022-10-28T13:23:57.802Z,4.05
2022-10-28T13:26:40.334Z,3.30
2022-10-28T13:29:19.243Z,3.30
2022-10-28T13:31:47.787Z,3.00
2022-10-28T13:34:18.852Z,3.63
2022-10-28T13:36:57.702Z,3.20
2022-10-28T13:39:29.097Z,3.25
2022-10-28T13:42:20.962Z,3.95
2022-10-28T13:44:55.682Z,3.63
2022-10-28T13:47:30.204Z,4.30
2022-10-28T13:50:07.994Z,4.35
2022-10-28T13:52:41.496Z,3.88
2022-10-28T13:55:27.810Z,4.35
2022-10-28T13:58:06.042Z,3.67
2022-10-28T14:00:37.205Z,3.95
2022-10-28T14:03:26.497Z,4.53
2022-10-28T14:06:00.421Z,3.97
2022-10-28T14:08:33.612Z,3.95
2022-10-28T14:11:23.111Z,4.63
2022-10-28T14:14:03.725Z,3.92
2022-10-28T14:16:33.892Z,4.90
2022-10-28T14:19:10.331Z,5.30
2022-10-28T14:22:02.088Z,5.30
2022-10-28T14:24:40.291Z,5.53
2022-10-28T14:27:08.427Z,5.40
2022-10-28T14:29:49.001Z,5.93
2022-10-28T14:32:32.329Z,9.38
2022-10-28T14:35:10.907Z,7.95
2022-10-28T14:38:37.963Z,9.48
2022-10-28T14:41:15.191Z,11.43
2022-10-28T14:44:01.313Z,12.10
2022-10-28T14:46:47.396Z,12.85
2022-10-28T14:49:25.477Z,14.52
2022-10-28T14:51:58.004Z,14.40
2022-10-28T14:54:51.252Z,15.43
2022-10-28T14:57:22.780Z,15.18
2022-10-28T14:59:51.835Z,13.48
2022-10-28T15:02:30.961Z,13.52
2022-10-28T15:05:04.114Z,13.10
2022-10-28T15:07:37.817Z,12.18
2022-10-28T15:10:27.995Z,13.43
2022-10-28T15:12:58.506Z,12.80
2022-10-28T15:15:32.169Z,12.65
2022-10-28T15:18:00.939Z,16.52
2022-10-28T15:20:36.553Z,14.43
2022-10-28T15:23:24.117Z,16.48
2022-10-28T15:26:12.688Z,15.60
2022-10-28T15:28:41.977Z,15.88
2022-10-28T15:31:10.281Z,16.77
2022-10-28T15:33:42.480Z,17.48
2022-10-28T15:36:22.372Z,17.55
2022-10-28T15:39:08.247Z,17.42
2022-10-28T15:41:49.514Z,17.50
2022-10-28T15:44:38.832Z,16.83
2022-10-28T15:47:23.613Z,14.57
2022-10-28T15:50:29.109Z,14.13
2022-10-28T15:53:47.533Z,11.40
2022-10-28T15:56:15.678Z,11.98
2022-10-28T15:59:09.112Z,11.02
2022-10-28T16:01:38.866Z,9.10
2022-10-28T16:04:39.232Z,9.70
2022-10-28T16:07:08.982Z,9.05
2022-10-28T16:09:43.472Z,8.63
2022-10-28T16:12:21.336Z,8.73
2022-10-28T16:15:00.673Z,9.50
2022-10-28T16:17:33.406Z,8.13
2022-10-28T16:20:16.975Z,9.20
2022-10-28T16:22:48.438Z,7.43
2022-10-28T16:25:22.335Z,7.72
2022-10-28T16:27:52.100Z,8.20
2022-10-28T16:30:20.427Z,8.02
2022-10-28T16:32:49.730Z,8.13
2022-10-28T16:35:22.827Z,7.72
2022-10-28T16:37:55.611Z,8.07
2022-10-28T16:40:49.755Z,7.35
2022-10-28T16:43:17.374Z,8.00
2022-10-28T16:45:49.680Z,6.22
2022-10-28T16:48:19.543Z,6.32
2022-10-28T16:50:51.408Z,6.68
2022-10-28T16:53:20.660Z,6.43
2022-10-28T16:55:49.311Z,7.43
2022-10-28T16:58:19.567Z,5.72
2022-10-28T17:03:18.945Z,6.00
2022-10-28T17:05:47.194Z,6.03
2022-10-28T17:08:15.540Z,6.05
2022-10-28T17:10:44.070Z,5.03
2022-10-28T17:13:14.326Z,6.15
2022-10-28T17:15:43.809Z,5.70
2022-10-28T17:18:15.118Z,5.78
2022-10-28T17:20:43.315Z,6.30
2022-10-28T17:23:11.436Z,6.07
2022-10-28T17:28:12.568Z,5.57
2022-10-28T17:30:40.825Z,5.35
2022-10-28T17:33:09.511Z,5.43
2022-10-28T17:35:37.625Z,5.20
2022-10-28T17:38:05.831Z,6.70
2022-10-28T17:40:34.123Z,4.85
2022-10-28T17:43:02.311Z,5.07
2022-10-28T17:45:30.483Z,9.45
2022-10-28T17:48:01.867Z,5.55
2022-10-28T17:50:30.086Z,5.55
2022-10-28T17:52:58.419Z,5.50
2022-10-28T17:55:26.558Z,6.10
2022-10-28T17:57:54.908Z,6.40
2022-10-28T18:00:23.371Z,5.85
2022-10-28T18:02:55.315Z,6.43
2022-10-28T18:05:26.350Z,6.38
2022-10-28T18:08:12.993Z,5.53
2022-10-28T18:10:57.503Z,5.88
2022-10-28T18:13:30.263Z,6.40
2022-10-28T18:16:16.183Z,6.22
2022-10-28T18:18:47.807Z,6.22
2022-10-28T18:21:16.071Z,6.45
2022-10-28T18:23:44.652Z,8.07
2022-10-28T18:26:15.004Z,6.28
2022-10-28T18:28:45.805Z,6.75
2022-10-28T18:31:16.722Z,6.25
2022-10-28T18:33:46.069Z,6.18
2022-10-28T18:36:16.843Z,7.13
2022-10-28T18:38:45.199Z,6.22
2022-10-28T18:41:21.253Z,6.50
2022-10-28T18:43:53.910Z,5.43
2022-10-28T18:46:22.205Z,6.43
2022-10-28T18:48:50.508Z,5.53
2022-10-28T18:51:19.111Z,6.75
2022-10-28T18:53:51.247Z,5.70
2022-10-28T18:56:22.471Z,6.25
2022-10-28T18:58:51.559Z,5.57
2022-10-28T19:01:25.895Z,6.13
2022-10-28T19:03:59.186Z,7.72
2022-10-28T19:06:32.614Z,5.60
2022-10-28T19:09:04.226Z,6.40
2022-10-28T19:11:33.837Z,7.18
2022-10-28T19:14:05.049Z,6.55
2022-10-28T19:16:34.380Z,6.30
2022-10-28T19:19:04.611Z,7.00
2022-10-28T19:21:33.351Z,5.95
2022-10-28T19:24:01.954Z,5.63
2022-10-28T19:26:32.065Z,6.20
2022-10-28T19:29:00.583Z,6.30
2022-10-28T19:31:30.089Z,6.28
2022-10-28T19:33:58.243Z,5.45
2022-10-28T19:36:28.632Z,5.95
2022-10-28T19:38:58.123Z,5.53
2022-10-28T19:41:30.092Z,6.20
2022-10-28T19:44:00.770Z,6.40
2022-10-28T19:46:31.246Z,7.40
2022-10-28T19:49:01.419Z,6.50
2022-10-28T19:51:35.350Z,5.60
2022-10-28T19:54:06.446Z,7.10
2022-10-28T19:56:36.081Z,7.95
2022-10-28T19:59:05.790Z,11.20
2022-10-28T20:01:36.335Z,9.90
2022-10-28T20:04:05.342Z,8.60
2022-10-28T20:06:36.375Z,9.00
2022-10-28T20:09:06.155Z,8.55
2022-10-28T20:11:37.575Z,10.25
2022-10-28T20:14:11.782Z,9.73
2022-10-28T20:16:42.704Z,9.13
2022-10-28T20:19:11.880Z,9.63
2022-10-28T20:21:40.463Z,9.90
2022-10-28T20:24:08.891Z,11.27
2022-10-28T20:26:39.045Z,10.70
2022-10-28T20:29:08.791Z,10.30
2022-10-28T20:31:38.932Z,11.32
2022-10-28T20:34:07.973Z,10.07
2022-10-28T20:36:38.643Z,10.38
2022-10-28T20:39:11.500Z,10.00
2022-10-28T20:41:40.911Z,9.82
2022-10-28T20:44:12.328Z,9.50
2022-10-28T20:46:40.709Z,10.38
2022-10-28T20:49:09.874Z,10.32
2022-10-28T20:51:38.245Z,10.07
2022-10-28T20:54:07.037Z,9.50
2022-10-28T20:56:37.637Z,8.85
2022-10-28T20:59:06.182Z,9.85
2022-10-28T21:01:39.781Z,10.32
2022-10-28T21:04:10.684Z,10.63
2022-10-28T21:06:39.485Z,8.98
2022-10-28T21:09:08.891Z,9.50
2022-10-28T21:11:37.082Z,9.00
2022-10-28T21:14:05.582Z,9.80
2022-10-28T21:16:33.644Z,11.50
2022-10-28T21:19:02.278Z,9.75
2022-10-28T21:21:31.243Z,11.35
2022-10-28T21:23:59.404Z,9.27
2022-10-28T21:26:27.517Z,9.50
2022-10-28T21:28:56.500Z,10.00
2022-10-28T21:31:25.146Z,9.40
2022-10-28T21:33:53.768Z,9.73
2022-10-28T21:36:23.164Z,9.65
2022-10-28T21:38:55.772Z,9.48
2022-10-28T21:41:24.956Z,10.00
2022-10-28T21:43:54.395Z,9.90
2022-10-28T21:46:24.198Z,9.90
2022-10-28T21:48:53.729Z,10.23
2022-10-28T21:51:21.902Z,9.20
2022-10-28T21:53:50.077Z,9.65
2022-10-28T21:56:20.189Z,9.32
2022-10-28T21:58:49.984Z,8.95
2022-10-28T22:01:23.240Z,9.60
2022-10-28T22:06:20.227Z,9.77
2022-10-28T22:08:48.472Z,8.43
2022-10-28T22:11:21.878Z,8.32
2022-10-28T22:16:24.267Z,8.15
2022-10-28T22:18:52.478Z,8.30
2022-10-28T22:21:23.087Z,8.88
2022-10-28T22:23:52.155Z,8.73
2022-10-28T22:26:22.584Z,8.80
2022-10-28T22:28:51.480Z,8.48
2022-10-28T22:31:22.364Z,7.78
2022-10-28T22:33:51.391Z,8.43
2022-10-28T22:36:22.733Z,8.93
2022-10-28T22:38:51.366Z,8.68
2022-10-28T22:41:24.974Z,7.82
2022-10-28T22:43:55.690Z,8.05
2022-10-28T22:46:26.225Z,8.30
2022-10-28T22:48:54.799Z,8.32
2022-10-28T22:51:23.306Z,8.82
2022-10-28T22:53:51.478Z,7.55
2022-10-28T22:56:22.420Z,8.60
2022-10-28T22:58:55.728Z,8.52
2022-10-28T23:01:25.502Z,8.40
2022-10-28T23:03:54.707Z,8.38
2022-10-28T23:06:25.634Z,8.48
2022-10-28T23:08:54.816Z,8.90
2022-10-28T23:11:23.418Z,8.00
2022-10-28T23:13:53.192Z,8.02
2022-10-28T23:16:24.881Z,8.13
2022-10-28T23:18:53.252Z,8.25
2022-10-28T23:21:23.938Z,7.95
2022-10-28T23:24:01.528Z,8.38
2022-10-28T23:26:30.584Z,6.68
2022-10-28T23:29:00.211Z,8.00
2022-10-28T23:31:28.806Z,8.85
2022-10-28T23:33:58.219Z,8.57
2022-10-28T23:36:26.386Z,9.38
2022-10-28T23:38:56.943Z,9.18
2022-10-28T23:41:25.040Z,8.77
2022-10-28T23:43:53.185Z,9.63
2022-10-28T23:46:21.601Z,8.13
2022-10-28T23:48:49.766Z,8.60
2022-10-28T23:51:19.329Z,8.95
2022-10-28T23:53:49.948Z,9.65
2022-10-28T23:56:18.193Z,10.00
2022-10-28T23:58:46.342Z,8.55
